createdAt,value
2019-05-13T00:00:16.043Z,9.07
2019-05-13T00:02:44.476Z,9.87
2019-05-13T00:05:14.626Z,10.57
2019-05-13T00:07:43.908Z,7.80
2019-05-13T00:10:14.783Z,11.83
2019-05-13T00:12:44.538Z,7.30
2019-05-13T00:15:14.219Z,8.17
2019-05-13T00:17:44.660Z,12.33
2019-05-13T00:20:14.136Z,10.73
2019-05-13T00:22:44.845Z,8.80
2019-05-13T00:25:14.633Z,12.23
2019-05-13T00:27:44.450Z,16.43
2019-05-13T00:30:14.463Z,11.20
2019-05-13T00:32:44.622Z,11.63
2019-05-13T00:35:14.208Z,7.97
2019-05-13T00:37:44.281Z,12.93
2019-05-13T00:40:14.407Z,12.57
2019-05-13T00:42:44.068Z,9.87
2019-05-13T00:45:14.618Z,14.50
2019-05-13T00:47:43.839Z,13.73
2019-05-13T00:50:14.338Z,11.50
2019-05-13T00:52:44.855Z,12.97
2019-05-13T00:55:14.817Z,10.93
2019-05-13T00:57:43.957Z,11.63
2019-05-13T01:00:14.254Z,10.63
2019-05-13T01:02:44.577Z,12.67
2019-05-13T01:05:14.741Z,9.90
2019-05-13T01:07:44.313Z,6.43
2019-05-13T01:10:13.855Z,10.00
2019-05-13T01:12:44.033Z,10.60
2019-05-13T01:15:13.549Z,10.30
2019-05-13T01:17:44.430Z,12.47
2019-05-13T01:20:14.387Z,12.13
2019-05-13T01:22:44.081Z,9.80
2019-05-13T01:25:14.457Z,8.93
2019-05-13T01:27:44.596Z,10.63
2019-05-13T01:30:14.158Z,5.47
2019-05-13T01:32:44.896Z,11.50
2019-05-13T01:35:14.920Z,10.87
2019-05-13T01:37:46.201Z,7.10
2019-05-13T01:40:14.124Z,7.90
2019-05-13T01:42:44.478Z,9.43
2019-05-13T01:45:14.137Z,16.07
2019-05-13T01:47:44.131Z,8.47
2019-05-13T01:50:14.319Z,7.33
2019-05-13T01:52:44.590Z,9.10
2019-05-13T01:55:14.541Z,9.93
2019-05-13T01:57:44.264Z,14.27
2019-05-13T02:00:14.381Z,7.60
2019-05-13T02:02:44.602Z,6.90
2019-05-13T02:05:13.994Z,7.27
2019-05-13T02:07:56.079Z,9.47
2019-05-13T02:10:15.298Z,10.60
2019-05-13T02:12:44.515Z,12.70
2019-05-13T02:15:14.716Z,8.97
2019-05-13T02:17:44.660Z,5.57
2019-05-13T02:20:14.712Z,15.30
2019-05-13T02:22:44.413Z,12.40
2019-05-13T02:25:13.909Z,11.93
2019-05-13T02:27:44.040Z,12.83
2019-05-13T02:30:15.953Z,13.13
2019-05-13T02:32:43.458Z,7.70
2019-05-13T02:35:13.874Z,14.63
2019-05-13T02:37:43.399Z,7.50
2019-05-13T02:40:13.471Z,11.37
2019-05-13T02:42:43.719Z,11.57
2019-05-13T02:45:12.843Z,12.13
2019-05-13T02:47:44.314Z,10.77
2019-05-13T02:50:12.979Z,11.70
2019-05-13T02:52:44.281Z,12.10
2019-05-13T02:55:12.591Z,10.03
2019-05-13T02:57:43.595Z,11.27
2019-05-13T03:00:13.145Z,14.80
2019-05-13T03:02:43.768Z,9.93
2019-05-13T03:05:13.974Z,15.80
2019-05-13T03:07:43.396Z,15.07
2019-05-13T03:10:14.098Z,18.30
2019-05-13T03:12:43.107Z,8.97
2019-05-13T03:15:13.541Z,11.57
2019-05-13T03:17:53.373Z,9.13
2019-05-13T03:20:22.899Z,12.83
2019-05-13T03:22:52.835Z,15.23
2019-05-13T03:25:22.758Z,15.30
2019-05-13T03:27:53.933Z,14.20
2019-05-13T03:30:25.309Z,13.40
2019-05-13T03:33:00.570Z,11.03
2019-05-13T03:35:26.470Z,12.03
2019-05-13T03:37:53.552Z,11.23
2019-05-13T03:40:23.122Z,13.87
2019-05-13T03:42:53.793Z,11.17
2019-05-13T03:45:24.797Z,12.57
2019-05-13T03:47:55.705Z,14.13
2019-05-13T03:50:24.185Z,8.93
2019-05-13T03:52:52.862Z,11.93
2019-05-13T03:55:23.244Z,16.50
2019-05-13T03:57:53.291Z,11.23
2019-05-13T04:00:23.590Z,14.13
2019-05-13T04:02:53.132Z,12.13
2019-05-13T04:05:22.909Z,16.50
2019-05-13T04:07:52.488Z,17.47
2019-05-13T04:10:22.810Z,12.70
2019-05-13T04:12:52.856Z,9.53
2019-05-13T04:15:23.406Z,14.97
2019-05-13T04:17:53.257Z,13.70
2019-05-13T04:20:23.201Z,15.17
2019-05-13T04:22:53.585Z,8.77
2019-05-13T04:25:23.391Z,13.07
2019-05-13T04:27:53.434Z,14.97
2019-05-13T04:30:22.610Z,13.20
2019-05-13T04:32:53.376Z,16.03
2019-05-13T04:35:23.476Z,15.13
2019-05-13T04:37:53.087Z,10.53
2019-05-13T04:40:23.115Z,12.43
2019-05-13T04:42:53.381Z,16.00
2019-05-13T04:45:23.922Z,13.53
2019-05-13T04:47:53.016Z,17.93
2019-05-13T04:50:22.673Z,15.20
2019-05-13T04:52:52.963Z,14.50
2019-05-13T04:55:23.097Z,12.30
2019-05-13T04:57:53.452Z,20.30
2019-05-13T05:01:04.825Z,16.47
2019-05-13T05:03:48.011Z,18.43
2019-05-13T05:06:38.324Z,17.63
2019-05-13T05:09:15.556Z,9.27
2019-05-13T05:12:17.153Z,17.53
2019-05-13T05:15:18.765Z,16.70
2019-05-13T05:18:23.713Z,20.60
2019-05-13T05:21:13.382Z,27.07
2019-05-13T05:23:59.195Z,12.50
2019-05-13T05:26:33.167Z,16.67
2019-05-13T05:29:21.729Z,15.17
2019-05-13T05:32:05.080Z,17.87
2019-05-13T05:34:58.479Z,19.33
2019-05-13T05:37:46.236Z,19.70
2019-05-13T05:40:28.107Z,18.97
2019-05-13T05:42:47.024Z,16.83
2019-05-13T05:45:16.905Z,12.10
2019-05-13T05:47:46.783Z,10.20
2019-05-13T05:50:15.335Z,13.80
2019-05-13T05:52:43.848Z,16.83
2019-05-13T05:55:12.500Z,10.43
2019-05-13T05:57:44.287Z,15.00
2019-05-13T06:00:14.210Z,10.07
2019-05-13T06:02:45.917Z,13.97
2019-05-13T06:05:14.578Z,15.63
2019-05-13T06:07:43.112Z,20.07
2019-05-13T06:10:12.361Z,10.27
2019-05-13T06:12:42.446Z,15.27
2019-05-13T06:15:12.322Z,13.47
2019-05-13T06:17:41.440Z,12.17
2019-05-13T06:20:13.247Z,8.57
2019-05-13T06:22:42.393Z,8.97
2019-05-13T06:25:14.536Z,12.47
2019-05-13T06:27:42.231Z,11.40
2019-05-13T06:30:12.637Z,17.47
2019-05-13T06:32:41.893Z,17.93
2019-05-13T06:35:11.599Z,18.00
2019-05-13T06:37:41.431Z,11.63
2019-05-13T06:40:12.357Z,11.80
2019-05-13T06:42:41.706Z,14.07
2019-05-13T06:45:12.377Z,23.77
2019-05-13T06:47:41.310Z,17.73
2019-05-13T06:50:11.607Z,19.03
2019-05-13T06:52:42.497Z,13.40
2019-05-13T06:55:11.609Z,8.77
2019-05-13T06:57:42.213Z,15.37
2019-05-13T07:00:12.179Z,12.33
2019-05-13T07:02:42.725Z,10.00
2019-05-13T07:05:12.094Z,13.07
2019-05-13T07:07:42.395Z,9.37
2019-05-13T07:10:12.738Z,9.87
2019-05-13T07:12:41.541Z,10.33
2019-05-13T07:15:11.599Z,56.03
2019-05-13T07:17:41.588Z,36.93
2019-05-13T07:20:11.768Z,13.67
2019-05-13T07:22:42.165Z,7.97
2019-05-13T07:25:11.520Z,11.10
2019-05-13T07:27:42.419Z,11.77
2019-05-13T07:30:11.405Z,10.53
2019-05-13T07:32:42.079Z,11.20
2019-05-13T07:35:14.138Z,9.03
2019-05-13T07:37:42.477Z,15.40
2019-05-13T07:40:11.790Z,6.33
2019-05-13T07:42:41.964Z,8.10
2019-05-13T07:45:12.172Z,12.63
2019-05-13T07:47:41.955Z,13.80
2019-05-13T07:50:12.675Z,10.10
2019-05-13T07:52:42.268Z,12.80
2019-05-13T07:55:11.984Z,11.93
2019-05-13T07:57:42.306Z,13.17
2019-05-13T08:00:12.598Z,14.43
2019-05-13T08:02:41.836Z,11.33
2019-05-13T08:05:12.062Z,11.80
2019-05-13T08:07:42.236Z,11.23
2019-05-13T08:10:11.989Z,10.53
2019-05-13T08:12:41.280Z,7.63
2019-05-13T08:15:11.919Z,11.77
2019-05-13T08:17:46.720Z,8.17
2019-05-13T08:20:12.701Z,11.23
2019-05-13T08:22:42.453Z,11.80
2019-05-13T08:25:12.607Z,10.33
2019-05-13T08:27:42.129Z,9.17
2019-05-13T08:30:11.997Z,11.17
2019-05-13T08:32:41.964Z,7.17
2019-05-13T08:35:12.544Z,9.30
2019-05-13T08:37:41.468Z,8.10
2019-05-13T08:40:12.034Z,11.67
2019-05-13T08:42:41.530Z,9.27
2019-05-13T08:45:12.042Z,12.47
2019-05-13T08:47:41.975Z,9.57
2019-05-13T08:50:12.161Z,11.67
2019-05-13T08:52:42.280Z,8.47
2019-05-13T08:55:15.523Z,9.00
2019-05-13T08:57:42.023Z,7.30
2019-05-13T09:00:13.738Z,14.03
2019-05-13T09:02:42.199Z,21.63
2019-05-13T09:05:12.336Z,13.90
2019-05-13T09:07:41.329Z,8.43
2019-05-13T09:10:12.216Z,7.63
2019-05-13T09:12:43.104Z,8.63
2019-05-13T09:15:11.901Z,7.40
2019-05-13T09:17:42.495Z,11.00
2019-05-13T09:20:11.619Z,11.77
2019-05-13T09:22:41.270Z,10.03
2019-05-13T09:25:12.353Z,8.37
2019-05-13T09:27:42.588Z,10.93
2019-05-13T09:30:11.980Z,8.47
2019-05-13T09:32:42.596Z,8.97
2019-05-13T09:35:12.033Z,6.70
2019-05-13T09:37:42.335Z,10.20
2019-05-13T09:40:12.054Z,14.03
2019-05-13T09:42:49.047Z,8.20
2019-05-13T09:45:12.291Z,6.70
2019-05-13T09:47:41.741Z,5.47
2019-05-13T09:50:27.618Z,4.17
2019-05-13T09:52:42.809Z,8.87
2019-05-13T09:55:25.308Z,8.13
2019-05-13T09:57:41.667Z,6.93
2019-05-13T10:00:12.222Z,6.60
2019-05-13T10:02:42.626Z,6.10
2019-05-13T10:05:11.807Z,7.30
2019-05-13T10:07:42.482Z,4.50
2019-05-13T10:10:11.960Z,7.67
2019-05-13T10:12:42.551Z,5.23
2019-05-13T10:15:12.547Z,7.03
2019-05-13T10:17:42.692Z,3.07
2019-05-13T10:20:12.562Z,7.43
2019-05-13T10:22:41.809Z,3.93
2019-05-13T10:25:13.954Z,6.23
2019-05-13T10:27:42.598Z,4.60
2019-05-13T10:30:14.202Z,5.33
2019-05-13T10:32:42.819Z,5.73
2019-05-13T10:35:13.271Z,6.73
2019-05-13T10:37:42.184Z,4.90
2019-05-13T10:40:11.750Z,5.00
2019-05-13T10:42:43.142Z,5.20
2019-05-13T10:45:12.819Z,2.07
2019-05-13T10:47:42.365Z,6.33
2019-05-13T10:50:11.187Z,6.30
2019-05-13T10:52:42.540Z,6.90
2019-05-13T10:55:12.599Z,5.37
2019-05-13T10:57:42.372Z,6.57
2019-05-13T11:00:12.184Z,5.50
2019-05-13T11:02:42.418Z,3.17
2019-05-13T11:05:12.321Z,3.77
2019-05-13T11:07:42.138Z,4.50
2019-05-13T11:10:13.270Z,4.13
2019-05-13T11:12:41.924Z,6.77
2019-05-13T11:15:12.010Z,4.20
2019-05-13T11:17:42.687Z,2.83
2019-05-13T11:20:12.438Z,5.17
2019-05-13T11:22:41.158Z,4.07
2019-05-13T11:25:12.338Z,4.67
2019-05-13T11:27:42.178Z,3.03
2019-05-13T11:30:11.133Z,4.40
2019-05-13T11:32:42.356Z,4.07
2019-05-13T11:35:12.893Z,5.00
2019-05-13T11:37:39.932Z,3.17
2019-05-13T11:40:11.960Z,2.00
2019-05-13T11:42:42.184Z,3.20
2019-05-13T11:45:11.670Z,3.40
2019-05-13T11:47:41.499Z,4.73
2019-05-13T11:50:11.691Z,2.43
2019-05-13T11:52:42.424Z,3.23
2019-05-13T11:55:12.985Z,5.87
2019-05-13T11:57:44.339Z,7.47
2019-05-13T12:00:13.684Z,2.53
2019-05-13T12:02:43.531Z,3.13
2019-05-13T12:05:12.639Z,4.73
2019-05-13T12:07:42.054Z,3.10
2019-05-13T12:10:12.513Z,3.10
2019-05-13T12:12:43.892Z,3.67
2019-05-13T12:15:42.465Z,4.57
2019-05-13T12:17:42.952Z,4.40
2019-05-13T12:20:13.601Z,3.77
2019-05-13T12:22:42.784Z,4.40
2019-05-13T12:25:13.809Z,4.10
2019-05-13T12:27:42.077Z,6.27
2019-05-13T12:30:12.485Z,6.97
2019-05-13T12:32:43.739Z,3.80
2019-05-13T12:35:13.336Z,6.00
2019-05-13T12:37:42.139Z,3.90
2019-05-13T12:40:11.060Z,6.03
2019-05-13T12:42:44.353Z,2.70
2019-05-13T12:45:13.915Z,2.47
2019-05-13T12:47:43.356Z,4.87
2019-05-13T12:50:13.642Z,4.43
2019-05-13T12:52:43.751Z,1.27
2019-05-13T12:57:41.986Z,3.30
2019-05-13T13:00:13.165Z,2.73
2019-05-13T13:02:49.171Z,3.63
2019-05-13T13:05:19.549Z,2.00
2019-05-13T13:07:42.699Z,2.83
2019-05-13T13:10:14.704Z,2.73
2019-05-13T13:12:42.262Z,2.73
2019-05-13T13:15:35.475Z,3.23
2019-05-13T13:17:41.550Z,2.77
2019-05-13T13:20:15.116Z,3.20
2019-05-13T13:22:41.807Z,2.03
2019-05-13T13:25:13.219Z,2.03
2019-05-13T13:28:03.157Z,1.40
2019-05-13T13:30:12.283Z,3.40
2019-05-13T13:32:45.364Z,2.33
2019-05-13T13:35:14.612Z,3.20
2019-05-13T13:37:46.039Z,1.97
2019-05-13T13:40:11.821Z,3.27
2019-05-13T13:42:43.083Z,3.20
2019-05-13T13:45:10.816Z,4.63
2019-05-13T13:47:39.298Z,2.27
2019-05-13T13:50:11.178Z,1.43
2019-05-13T13:52:39.333Z,1.43
2019-05-13T13:55:09.110Z,2.50
2019-05-13T13:57:38.057Z,1.40
2019-05-13T14:00:31.712Z,3.93
2019-05-13T14:02:38.203Z,4.60
2019-05-13T14:05:07.114Z,5.77
2019-05-13T14:06:35.507Z,2.80
2019-05-13T14:07:38.654Z,2.30
2019-05-13T14:10:07.447Z,2.40
2019-05-13T14:12:35.858Z,4.17
2019-05-13T14:15:05.823Z,1.73
2019-05-13T14:17:34.314Z,4.77
2019-05-13T14:20:02.738Z,1.63
2019-05-13T14:22:32.264Z,2.30
2019-05-13T14:25:01.090Z,3.70
2019-05-13T14:27:31.468Z,1.50
2019-05-13T14:30:01.354Z,1.77
2019-05-13T14:32:32.079Z,1.83
2019-05-13T14:35:02.222Z,1.77
2019-05-13T14:37:31.825Z,1.50
2019-05-13T14:40:02.486Z,4.30
2019-05-13T14:42:32.150Z,2.20
2019-05-13T14:45:01.939Z,2.57
2019-05-13T14:47:32.117Z,3.87
2019-05-13T14:50:02.101Z,3.17
2019-05-13T14:52:32.316Z,6.03
2019-05-13T14:55:02.206Z,3.37
2019-05-13T14:57:32.227Z,1.70
2019-05-13T15:00:02.419Z,3.47
2019-05-13T15:02:32.108Z,2.13
2019-05-13T15:05:02.680Z,1.33
2019-05-13T15:07:32.248Z,1.20
2019-05-13T15:10:02.437Z,4.07
2019-05-13T15:12:32.324Z,2.00
2019-05-13T15:15:01.636Z,4.17
2019-05-13T15:17:32.491Z,4.60
2019-05-13T15:20:01.864Z,1.43
2019-05-13T15:22:31.835Z,2.47
2019-05-13T15:25:02.761Z,1.90
2019-05-13T15:27:31.680Z,1.77
2019-05-13T15:30:14.454Z,2.10
2019-05-13T15:32:32.542Z,4.53
2019-05-13T15:35:02.119Z,1.90
2019-05-13T15:37:32.163Z,2.40
2019-05-13T15:40:02.289Z,2.37
2019-05-13T15:42:31.876Z,4.93
2019-05-13T15:45:02.099Z,3.20
2019-05-13T15:47:31.052Z,2.47
2019-05-13T15:50:02.424Z,2.27
2019-05-13T15:52:31.835Z,3.60
2019-05-13T15:55:01.571Z,1.63
2019-05-13T15:57:32.102Z,4.63
2019-05-13T16:00:01.971Z,2.23
2019-05-13T16:02:31.417Z,4.97
2019-05-13T16:05:02.091Z,3.10
2019-05-13T16:07:30.417Z,3.10
2019-05-13T16:09:58.833Z,4.37
2019-05-13T16:12:27.348Z,2.17
2019-05-13T16:14:55.923Z,3.50
2019-05-13T16:17:37.927Z,4.47
2019-05-13T16:19:54.570Z,3.80
2019-05-13T16:22:23.219Z,2.43
2019-05-13T16:24:52.411Z,5.07
2019-05-13T16:27:21.679Z,4.80
2019-05-13T16:29:51.661Z,6.90
2019-05-13T16:32:22.739Z,5.00
2019-05-13T16:34:51.841Z,8.50
2019-05-13T16:37:21.978Z,4.10
2019-05-13T16:39:52.052Z,4.57
2019-05-13T16:42:22.514Z,4.73
2019-05-13T16:44:51.803Z,4.27
2019-05-13T16:47:21.281Z,1.47
2019-05-13T16:49:49.735Z,3.53
2019-05-13T16:52:18.160Z,5.00
2019-05-13T16:54:46.651Z,2.20
2019-05-13T16:57:15.210Z,4.47
2019-05-13T16:59:43.642Z,2.70
2019-05-13T17:02:12.769Z,2.97
2019-05-13T17:04:41.536Z,1.30
2019-05-13T17:07:13.205Z,5.53
2019-05-13T17:09:41.731Z,3.20
2019-05-13T17:12:13.859Z,3.00
2019-05-13T17:14:41.577Z,3.37
2019-05-13T17:17:11.962Z,3.87
2019-05-13T17:19:42.271Z,2.87
2019-05-13T17:22:10.986Z,6.63
2019-05-13T17:24:39.445Z,3.50
2019-05-13T17:27:07.859Z,3.37
2019-05-13T17:29:36.272Z,5.00
2019-05-13T17:32:04.851Z,3.57
2019-05-13T17:34:33.275Z,4.37
2019-05-13T17:37:02.784Z,3.13
2019-05-13T17:39:32.135Z,5.27
2019-05-13T17:42:01.486Z,3.80
2019-05-13T17:44:31.763Z,7.27
2019-05-13T17:47:01.758Z,1.83
2019-05-13T17:49:31.865Z,4.17
2019-05-13T17:52:02.462Z,3.07
2019-05-13T17:54:31.824Z,6.57
2019-05-13T17:57:01.818Z,3.83
2019-05-13T17:59:31.482Z,6.80
2019-05-13T18:02:02.665Z,4.60
2019-05-13T18:04:31.410Z,2.73
2019-05-13T18:07:01.678Z,3.67
2019-05-13T18:09:31.828Z,3.67
2019-05-13T18:12:02.479Z,3.53
2019-05-13T18:14:30.720Z,4.90
2019-05-13T18:17:01.348Z,3.33
2019-05-13T18:19:31.490Z,3.43
2019-05-13T18:22:01.952Z,5.10
2019-05-13T18:24:31.830Z,4.43
2019-05-13T18:27:01.296Z,1.63
2019-05-13T18:29:31.667Z,3.00
2019-05-13T18:32:02.012Z,6.67
2019-05-13T18:34:32.138Z,4.63
2019-05-13T18:37:02.469Z,3.03
2019-05-13T18:39:32.247Z,1.87
2019-05-13T18:42:01.135Z,2.97
2019-05-13T18:44:31.476Z,5.90
2019-05-13T18:47:01.580Z,3.50
2019-05-13T18:49:31.795Z,4.90
2019-05-13T18:52:00.202Z,6.00
2019-05-13T18:54:28.656Z,4.63
2019-05-13T18:56:57.080Z,5.27
2019-05-13T18:59:25.556Z,2.93
2019-05-13T19:01:54.025Z,3.53
2019-05-13T19:04:22.425Z,5.97
2019-05-13T19:06:51.640Z,2.87
2019-05-13T19:09:21.713Z,6.13
2019-05-13T19:11:51.601Z,6.58
2019-05-13T19:14:21.230Z,3.07
2019-05-13T19:16:49.891Z,2.10
2019-05-13T19:19:20.691Z,5.20
2019-05-13T19:21:48.538Z,3.37
2019-05-13T19:24:16.993Z,4.60
2019-05-13T19:26:45.473Z,5.53
2019-05-13T19:29:13.897Z,3.27
2019-05-13T19:31:42.409Z,3.23
2019-05-13T19:34:12.588Z,6.20
2019-05-13T19:36:41.156Z,5.90
2019-05-13T19:39:11.462Z,5.40
2019-05-13T19:41:42.049Z,10.77
2019-05-13T19:44:10.095Z,5.57
2019-05-13T19:46:38.512Z,3.47
2019-05-13T19:49:06.982Z,9.10
2019-05-13T19:51:35.534Z,4.83
2019-05-13T19:54:03.959Z,4.07
2019-05-13T19:56:32.411Z,4.77
2019-05-13T19:59:01.532Z,4.77
2019-05-13T20:01:32.201Z,5.37
2019-05-13T20:04:02.329Z,4.47
2019-05-13T20:06:31.966Z,4.10
2019-05-13T20:09:01.474Z,5.87
2019-05-13T20:11:30.087Z,3.90
2019-05-13T20:13:58.513Z,1.97
2019-05-13T20:16:26.940Z,4.47
2019-05-13T20:18:55.350Z,6.10
2019-05-13T20:21:24.072Z,3.10
2019-05-13T20:23:52.490Z,4.47
2019-05-13T20:26:22.717Z,2.93
2019-05-13T20:28:51.365Z,4.47
2019-05-13T20:31:21.717Z,4.20
2019-05-13T20:33:51.545Z,3.43
2019-05-13T20:36:22.178Z,3.47
2019-05-13T20:38:51.595Z,5.93
2019-05-13T20:41:22.396Z,4.17
2019-05-13T20:43:52.040Z,10.90
2019-05-13T20:46:22.979Z,3.87
2019-05-13T20:48:51.943Z,4.50
2019-05-13T20:51:21.973Z,5.00
2019-05-13T20:53:51.817Z,4.13
2019-05-13T20:56:21.384Z,2.60
2019-05-13T20:58:51.524Z,4.57
2019-05-13T21:01:20.157Z,6.10
2019-05-13T21:03:51.330Z,4.33
2019-05-13T21:06:18.837Z,2.77
2019-05-13T21:08:47.353Z,6.90
2019-05-13T21:11:15.764Z,5.40
2019-05-13T21:13:44.174Z,8.80
2019-05-13T21:16:14.166Z,6.47
2019-05-13T21:18:42.701Z,7.90
2019-05-13T21:21:11.782Z,5.67
2019-05-13T21:23:41.770Z,3.30
2019-05-13T21:26:14.721Z,6.43
2019-05-13T21:28:41.904Z,3.27
2019-05-13T21:31:11.355Z,11.50
2019-05-13T21:33:40.151Z,4.00
2019-05-13T21:36:08.533Z,5.03
2019-05-13T21:38:36.952Z,6.17
2019-05-13T21:41:05.371Z,6.33
2019-05-13T21:43:33.770Z,7.37
2019-05-13T21:46:02.412Z,4.30
2019-05-13T21:48:32.479Z,5.00
2019-05-13T21:51:01.183Z,4.00
2019-05-13T21:53:32.351Z,5.90
2019-05-13T21:56:02.123Z,4.93
2019-05-13T21:58:31.287Z,8.17
2019-05-13T22:01:01.700Z,5.03
2019-05-13T22:03:33.170Z,4.97
2019-05-13T22:06:01.914Z,6.33
2019-05-13T22:08:32.108Z,4.90
2019-05-13T22:11:01.774Z,5.87
2019-05-13T22:13:31.616Z,4.97
2019-05-13T22:16:01.733Z,7.73
2019-05-13T22:18:31.317Z,4.30
2019-05-13T22:21:01.310Z,6.43
2019-05-13T22:23:32.034Z,4.37
2019-05-13T22:26:01.632Z,5.77
2019-05-13T22:28:31.296Z,8.57
2019-05-13T22:31:01.310Z,8.97
2019-05-13T22:33:32.171Z,5.97
2019-05-13T22:36:01.592Z,7.80
2019-05-13T22:38:32.290Z,7.13
2019-05-13T22:41:01.232Z,6.10
2019-05-13T22:43:31.987Z,11.70
2019-05-13T22:46:00.936Z,11.23
2019-05-13T22:48:31.541Z,11.50
2019-05-13T22:51:01.386Z,7.43
2019-05-13T22:53:31.918Z,7.30
2019-05-13T22:55:59.873Z,11.67
2019-05-13T22:58:28.363Z,7.90
2019-05-13T23:00:56.800Z,11.10
2019-05-13T23:03:25.205Z,11.10
2019-05-13T23:05:53.635Z,6.90
2019-05-13T23:08:22.060Z,11.07
2019-05-13T23:10:51.508Z,6.60
2019-05-13T23:13:20.157Z,5.90
2019-05-13T23:15:56.201Z,6.17
2019-05-13T23:18:24.549Z,8.23
2019-05-13T23:20:53.003Z,6.50
2019-05-13T23:23:22.128Z,7.23
2019-05-13T23:25:51.042Z,3.87
2019-05-13T23:28:21.510Z,4.67
2019-05-13T23:30:51.178Z,6.73
2019-05-13T23:33:21.936Z,10.20
2019-05-13T23:35:50.083Z,6.00
2019-05-13T23:38:18.486Z,5.60
2019-05-13T23:40:46.919Z,7.80
2019-05-13T23:43:15.349Z,4.10
2019-05-13T23:45:43.748Z,5.90
2019-05-13T23:48:12.181Z,11.83
2019-05-13T23:50:41.503Z,4.70
2019-05-13T23:53:10.181Z,6.87
2019-05-13T23:55:38.612Z,7.53
2019-05-13T23:58:07.028Z,7.97
